sensor_id;sensor_type;location;lat;lon;timestamp;pressure;altitude;pressure_sealevel;temperature;humidity
28312;BME280;15572;48.810;9.148;2023-03-02T00:03:58;98254.03;;;-0.97;100.00
28312;BME280;15572;48.810;9.148;2023-03-02T00:08:56;98253.88;;;-0.95;100.00
28312;BME280;15572;48.810;9.148;2023-03-02T00:13:56;98249.31;;;-0.93;100.00
28312;BME280;15572;48.810;9.148;2023-03-02T00:18:52;98243.13;;;-0.94;100.00
28312;BME280;15572;48.810;9.148;2023-03-02T00:23:49;98250.84;;;-0.91;100.00
28312;BME280;15572;48.810;9.148;2023-03-02T00:28:45;98244.81;;;-0.81;100.00
28312;BME280;15572;48.810;9.148;2023-03-02T00:33:43;98239.69;;;-0.62;100.00
28312;BME280;15572;48.810;9.148;2023-03-02T00:38:40;98235.13;;;-0.39;100.00
28312;BME280;15572;48.810;9.148;2023-03-02T00:43:36;98230.69;;;-0.18;100.00
28312;BME280;15572;48.810;9.148;2023-03-02T00:48:33;98228.00;;;-0.18;100.00
28312;BME280;15572;48.810;9.148;2023-03-02T00:53:31;98237.31;;;-0.13;100.00
28312;BME280;15572;48.810;9.148;2023-03-02T00:58:28;98228.19;;;-0.10;100.00
28312;BME280;15572;48.810;9.148;2023-03-02T01:03:25;98234.53;;;-0.11;100.00
28312;BME280;15572;48.810;9.148;2023-03-02T01:08:22;98226.00;;;-0.05;100.00
28312;BME280;15572;48.810;9.148;2023-03-02T01:13:20;98226.19;;;0.03;100.00
28312;BME280;15572;48.810;9.148;2023-03-02T01:18:17;98214.59;;;0.04;100.00
28312;BME280;15572;48.810;9.148;2023-03-02T01:23:13;98208.91;;;0.18;100.00
28312;BME280;15572;48.810;9.148;2023-03-02T01:28:10;98209.03;;;0.17;100.00
28312;BME280;15572;48.810;9.148;2023-03-02T01:33:07;98200.81;;;0.20;100.00
28312;BME280;15572;48.810;9.148;2023-03-02T01:38:04;98197.28;;;0.19;100.00
28312;BME280;15572;48.810;9.148;2023-03-02T01:43:01;98197.19;;;0.21;100.00
28312;BME280;15572;48.810;9.148;2023-03-02T01:47:58;98190.16;;;0.20;100.00
28312;BME280;15572;48.810;9.148;2023-03-02T01:52:56;98184.72;;;0.21;100.00
28312;BME280;15572;48.810;9.148;2023-03-02T01:57:53;98184.72;;;0.21;100.00
28312;BME280;15572;48.810;9.148;2023-03-02T02:02:53;98178.09;;;0.16;100.00
28312;BME280;15572;48.810;9.148;2023-03-02T02:07:50;98169.78;;;0.09;100.00
28312;BME280;15572;48.810;9.148;2023-03-02T02:12:47;98168.72;;;0.00;100.00
28312;BME280;15572;48.810;9.148;2023-03-02T02:17:44;98164.25;;;0.01;100.00
28312;BME280;15572;48.810;9.148;2023-03-02T02:22:50;98157.50;;;-0.03;100.00
28312;BME280;15572;48.810;9.148;2023-03-02T02:27:50;98160.81;;;-0.11;100.00
28312;BME280;15572;48.810;9.148;2023-03-02T02:32:48;98151.28;;;-0.13;100.00
28312;BME280;15572;48.810;9.148;2023-03-02T02:37:49;98152.31;;;-0.25;100.00
28312;BME280;15572;48.810;9.148;2023-03-02T02:42:47;98148.38;;;-0.31;100.00
28312;BME280;15572;48.810;9.148;2023-03-02T02:47:47;98143.50;;;-0.47;100.00
28312;BME280;15572;48.810;9.148;2023-03-02T02:52:46;98145.06;;;-0.65;100.00
28312;BME280;15572;48.810;9.148;2023-03-02T02:57:45;98145.94;;;-0.75;100.00
28312;BME280;15572;48.810;9.148;2023-03-02T03:02:44;98138.59;;;-0.83;100.00
28312;BME280;15572;48.810;9.148;2023-03-02T03:07:44;98139.75;;;-0.97;100.00
28312;BME280;15572;48.810;9.148;2023-03-02T03:12:41;98144.47;;;-1.11;100.00
28312;BME280;15572;48.810;9.148;2023-03-02T03:17:38;98139.72;;;-1.29;100.00
28312;BME280;15572;48.810;9.148;2023-03-02T03:22:36;98137.19;;;-1.30;100.00
28312;BME280;15572;48.810;9.148;2023-03-02T03:27:34;98131.88;;;-1.30;100.00
28312;BME280;15572;48.810;9.148;2023-03-02T03:32:30;98134.28;;;-1.38;100.00
28312;BME280;15572;48.810;9.148;2023-03-02T03:37:29;98133.97;;;-1.56;100.00
28312;BME280;15572;48.810;9.148;2023-03-02T03:42:26;98131.41;;;-1.57;100.00
28312;BME280;15572;48.810;9.148;2023-03-02T03:47:23;98132.03;;;-1.65;100.00
28312;BME280;15572;48.810;9.148;2023-03-02T03:52:20;98145.44;;;-1.78;100.00
28312;BME280;15572;48.810;9.148;2023-03-02T03:57:24;98144.22;;;-1.85;100.00
28312;BME280;15572;48.810;9.148;2023-03-02T04:02:21;98145.91;;;-2.06;100.00
28312;BME280;15572;48.810;9.148;2023-03-02T04:07:19;98154.34;;;-2.01;100.00
28312;BME280;15572;48.810;9.148;2023-03-02T04:12:15;98158.69;;;-2.00;100.00
28312;BME280;15572;48.810;9.148;2023-03-02T04:17:12;98155.06;;;-2.10;100.00
28312;BME280;15572;48.810;9.148;2023-03-02T04:22:08;98156.75;;;-2.20;100.00
28312;BME280;15572;48.810;9.148;2023-03-02T04:27:06;98153.34;;;-2.22;100.00
28312;BME280;15572;48.810;9.148;2023-03-02T04:32:04;98165.91;;;-2.13;100.00
28312;BME280;15572;48.810;9.148;2023-03-02T04:37:01;98160.28;;;-2.08;100.00
28312;BME280;15572;48.810;9.148;2023-03-02T04:41:58;98163.53;;;-2.05;100.00
28312;BME280;15572;48.810;9.148;2023-03-02T04:46:55;98152.31;;;-2.08;100.00
28312;BME280;15572;48.810;9.148;2023-03-02T04:51:52;98155.28;;;-2.13;100.00
28312;BME280;15572;48.810;9.148;2023-03-02T04:56:49;98156.88;;;-2.10;100.00
28312;BME280;15572;48.810;9.148;2023-03-02T05:01:46;98165.16;;;-2.26;100.00
28312;BME280;15572;48.810;9.148;2023-03-02T05:06:45;98167.34;;;-2.31;100.00
28312;BME280;15572;48.810;9.148;2023-03-02T05:11:42;98155.63;;;-2.29;100.00
28312;BME280;15572;48.810;9.148;2023-03-02T05:16:40;98158.53;;;-2.32;100.00
28312;BME280;15572;48.810;9.148;2023-03-02T05:21:36;98159.16;;;-2.17;100.00
28312;BME280;15572;48.810;9.148;2023-03-02T05:26:34;98155.31;;;-2.02;100.00
28312;BME280;15572;48.810;9.148;2023-03-02T05:31:33;98143.72;;;-2.01;100.00
28312;BME280;15572;48.810;9.148;2023-03-02T05:36:30;98151.59;;;-1.99;100.00
28312;BME280;15572;48.810;9.148;2023-03-02T05:41:27;98143.75;;;-1.90;100.00
28312;BME280;15572;48.810;9.148;2023-03-02T05:46:25;98149.53;;;-1.85;100.00
28312;BME280;15572;48.810;9.148;2023-03-02T05:51:22;98155.09;;;-1.77;100.00
28312;BME280;15572;48.810;9.148;2023-03-02T05:56:18;98159.56;;;-1.77;100.00
28312;BME280;15572;48.810;9.148;2023-03-02T06:01:16;98153.50;;;-1.79;100.00
28312;BME280;15572;48.810;9.148;2023-03-02T06:06:14;98159.41;;;-1.64;100.00
28312;BME280;15572;48.810;9.148;2023-03-02T06:11:11;98163.41;;;-1.59;100.00
28312;BME280;15572;48.810;9.148;2023-03-02T06:16:07;98169.06;;;-1.52;100.00
28312;BME280;15572;48.810;9.148;2023-03-02T06:21:04;98175.09;;;-1.39;100.00
28312;BME280;15572;48.810;9.148;2023-03-02T06:26:08;98183.06;;;-1.39;100.00
28312;BME280;15572;48.810;9.148;2023-03-02T06:31:05;98182.56;;;-1.33;100.00
28312;BME280;15572;48.810;9.148;2023-03-02T06:36:01;98185.94;;;-1.20;100.00
28312;BME280;15572;48.810;9.148;2023-03-02T06:40:58;98182.41;;;-1.09;100.00
28312;BME280;15572;48.810;9.148;2023-03-02T06:45:56;98183.75;;;-1.15;100.00
28312;BME280;15572;48.810;9.148;2023-03-02T06:50:54;98187.84;;;-1.11;100.00
28312;BME280;15572;48.810;9.148;2023-03-02T06:55:51;98189.63;;;-1.00;100.00
28312;BME280;15572;48.810;9.148;2023-03-02T07:00:47;98189.78;;;-1.02;100.00
28312;BME280;15572;48.810;9.148;2023-03-02T07:05:45;98199.38;;;-0.90;100.00
28312;BME280;15572;48.810;9.148;2023-03-02T07:10:43;98204.19;;;-0.72;100.00
28312;BME280;15572;48.810;9.148;2023-03-02T07:15:39;98213.00;;;-0.72;100.00
28312;BME280;15572;48.810;9.148;2023-03-02T07:20:36;98206.56;;;-0.69;100.00
28312;BME280;15572;48.810;9.148;2023-03-02T07:25:35;98207.06;;;-0.64;100.00
28312;BME280;15572;48.810;9.148;2023-03-02T07:30:31;98213.19;;;-0.64;100.00
28312;BME280;15572;48.810;9.148;2023-03-02T07:35:28;98216.56;;;-0.51;100.00
28312;BME280;15572;48.810;9.148;2023-03-02T07:40:24;98221.25;;;-0.43;100.00
28312;BME280;15572;48.810;9.148;2023-03-02T07:45:22;98219.13;;;-0.28;100.00
28312;BME280;15572;48.810;9.148;2023-03-02T07:50:19;98227.09;;;-0.28;100.00
28312;BME280;15572;48.810;9.148;2023-03-02T07:55:16;98224.97;;;-0.14;100.00
28312;BME280;15572;48.810;9.148;2023-03-02T08:00:13;98230.50;;;-0.06;100.00
28312;BME280;15572;48.810;9.148;2023-03-02T08:05:12;98232.09;;;0.07;100.00
28312;BME280;15572;48.810;9.148;2023-03-02T08:10:10;98230.03;;;0.31;100.00
28312;BME280;15572;48.810;9.148;2023-03-02T08:15:08;98239.94;;;0.50;100.00
28312;BME280;15572;48.810;9.148;2023-03-02T08:20:06;98238.47;;;0.66;100.00
28312;BME280;15572;48.810;9.148;2023-03-02T08:25:05;98238.00;;;0.92;100.00
28312;BME280;15572;48.810;9.148;2023-03-02T08:30:02;98241.31;;;1.24;100.00
28312;BME280;15572;48.810;9.148;2023-03-02T08:34:59;98232.94;;;1.48;100.00
28312;BME280;15572;48.810;9.148;2023-03-02T08:39:55;98222.84;;;1.71;100.00
28312;BME280;15572;48.810;9.148;2023-03-02T08:44:53;98216.81;;;1.97;100.00
28312;BME280;15572;48.810;9.148;2023-03-02T08:49:49;98219.44;;;2.17;100.00
28312;BME280;15572;48.810;9.148;2023-03-02T08:54:46;98212.13;;;2.19;100.00
28312;BME280;15572;48.810;9.148;2023-03-02T08:59:42;98207.84;;;2.35;100.00
28312;BME280;15572;48.810;9.148;2023-03-02T09:04:40;98207.00;;;2.44;100.00
28312;BME280;15572;48.810;9.148;2023-03-02T09:09:37;98201.22;;;2.49;100.00
28312;BME280;15572;48.810;9.148;2023-03-02T09:14:33;98209.91;;;2.61;100.00
28312;BME280;15572;48.810;9.148;2023-03-02T09:19:30;98204.91;;;2.75;100.00
28312;BME280;15572;48.810;9.148;2023-03-02T09:24:33;98192.63;;;2.82;100.00
28312;BME280;15572;48.810;9.148;2023-03-02T09:29:30;98185.84;;;2.88;100.00
28312;BME280;15572;48.810;9.148;2023-03-02T09:34:26;98193.03;;;2.87;100.00
28312;BME280;15572;48.810;9.148;2023-03-02T09:39:23;98196.91;;;3.03;96.84
28312;BME280;15572;48.810;9.148;2023-03-02T09:44:41;98194.81;;;3.24;96.86
28312;BME280;15572;48.810;9.148;2023-03-02T09:49:47;98202.38;;;3.28;93.14
28312;BME280;15572;48.810;9.148;2023-03-02T09:54:50;98211.78;;;3.32;94.29
28312;BME280;15572;48.810;9.148;2023-03-02T09:59:53;98206.91;;;3.46;93.67
28312;BME280;15572;48.810;9.148;2023-03-02T10:04:53;98208.22;;;3.77;92.87
28312;BME280;15572;48.810;9.148;2023-03-02T10:09:50;98204.59;;;4.04;91.27
28312;BME280;15572;48.810;9.148;2023-03-02T10:14:54;98205.72;;;4.19;91.58
28312;BME280;15572;48.810;9.148;2023-03-02T10:19:55;98221.28;;;4.41;90.67
28312;BME280;15572;48.810;9.148;2023-03-02T10:24:57;98214.09;;;4.42;87.96
28312;BME280;15572;48.810;9.148;2023-03-02T10:30:03;98217.63;;;4.76;88.99
28312;BME280;15572;48.810;9.148;2023-03-02T10:35:11;98215.66;;;5.20;87.43
28312;BME280;15572;48.810;9.148;2023-03-02T10:40:25;98215.41;;;5.39;83.87
28312;BME280;15572;48.810;9.148;2023-03-02T10:45:27;98211.72;;;5.48;84.57
28312;BME280;15572;48.810;9.148;2023-03-02T10:50:25;98207.91;;;5.59;83.47
28312;BME280;15572;48.810;9.148;2023-03-02T10:55:21;98204.22;;;5.60;82.57
28312;BME280;15572;48.810;9.148;2023-03-02T11:00:22;98212.00;;;5.87;81.87
28312;BME280;15572;48.810;9.148;2023-03-02T11:05:25;98202.59;;;6.16;79.88
28312;BME280;15572;48.810;9.148;2023-03-02T11:10:24;98195.19;;;6.50;78.66
28312;BME280;15572;48.810;9.148;2023-03-02T11:15:26;98185.34;;;6.82;75.76
28312;BME280;15572;48.810;9.148;2023-03-02T11:20:28;98185.94;;;7.00;72.39
28312;BME280;15572;48.810;9.148;2023-03-02T11:25:30;98193.84;;;6.38;73.32
28312;BME280;15572;48.810;9.148;2023-03-02T11:30:33;98181.63;;;7.22;71.42
28312;BME280;15572;48.810;9.148;2023-03-02T11:35:35;98185.91;;;7.47;67.46
28312;BME280;15572;48.810;9.148;2023-03-02T11:40:35;98175.19;;;7.61;68.01
28312;BME280;15572;48.810;9.148;2023-03-02T11:45:41;98172.97;;;8.33;65.89
28312;BME280;15572;48.810;9.148;2023-03-02T11:50:53;98166.81;;;8.02;64.56
28312;BME280;15572;48.810;9.148;2023-03-02T11:55:50;98163.13;;;8.55;64.92
28312;BME280;15572;48.810;9.148;2023-03-02T12:00:47;98173.03;;;8.92;63.25
28312;BME280;15572;48.810;9.148;2023-03-02T12:05:58;98167.16;;;9.18;61.01
28312;BME280;15572;48.810;9.148;2023-03-02T12:10:58;98167.34;;;9.52;59.45
28312;BME280;15572;48.810;9.148;2023-03-02T12:15:55;98162.47;;;9.62;57.81
28312;BME280;15572;48.810;9.148;2023-03-02T12:21:00;98167.31;;;9.31;57.54
28312;BME280;15572;48.810;9.148;2023-03-02T12:26:04;98160.91;;;9.17;57.75
28312;BME280;15572;48.810;9.148;2023-03-02T12:31:03;98153.44;;;9.34;57.13
28312;BME280;15572;48.810;9.148;2023-03-02T12:36:10;98155.31;;;9.34;57.28
28312;BME280;15572;48.810;9.148;2023-03-02T12:41:14;98148.34;;;9.46;57.64
28312;BME280;15572;48.810;9.148;2023-03-02T12:46:34;98137.56;;;9.67;56.98
28312;BME280;15572;48.810;9.148;2023-03-02T12:51:44;98131.13;;;10.10;56.23
28312;BME280;15572;48.810;9.148;2023-03-02T12:56:42;98126.97;;;10.57;53.94
28312;BME280;15572;48.810;9.148;2023-03-02T13:01:38;98128.59;;;10.58;53.88
28312;BME280;15572;48.810;9.148;2023-03-02T13:06:37;98132.31;;;10.78;53.45
28312;BME280;15572;48.810;9.148;2023-03-02T13:11:35;98127.16;;;10.55;53.92
28312;BME280;15572;48.810;9.148;2023-03-02T13:16:33;98127.84;;;10.36;53.86
28312;BME280;15572;48.810;9.148;2023-03-02T13:21:32;98132.94;;;10.52;53.98
28312;BME280;15572;48.810;9.148;2023-03-02T13:26:32;98129.38;;;10.80;52.49
28312;BME280;15572;48.810;9.148;2023-03-02T13:31:29;98122.88;;;10.74;52.49
28312;BME280;15572;48.810;9.148;2023-03-02T13:36:28;98124.94;;;10.66;52.90
28312;BME280;15572;48.810;9.148;2023-03-02T13:41:27;98114.75;;;10.68;52.84
28312;BME280;15572;48.810;9.148;2023-03-02T13:46:33;98112.41;;;10.99;52.38
28312;BME280;15572;48.810;9.148;2023-03-02T13:51:31;98108.91;;;11.12;51.41
28312;BME280;15572;48.810;9.148;2023-03-02T13:56:31;98110.09;;;10.89;52.69
28312;BME280;15572;48.810;9.148;2023-03-02T14:01:30;98102.06;;;10.75;53.00
28312;BME280;15572;48.810;9.148;2023-03-02T14:06:26;98109.38;;;10.81;53.30
28312;BME280;15572;48.810;9.148;2023-03-02T14:11:23;98101.50;;;10.86;53.40
28312;BME280;15572;48.810;9.148;2023-03-02T14:16:19;98107.94;;;10.78;52.61
28312;BME280;15572;48.810;9.148;2023-03-02T14:21:19;98100.91;;;10.90;53.38
28312;BME280;15572;48.810;9.148;2023-03-02T14:26:27;98109.75;;;11.06;51.74
28312;BME280;15572;48.810;9.148;2023-03-02T14:31:25;98101.13;;;10.95;52.73
28312;BME280;15572;48.810;9.148;2023-03-02T14:36:26;98100.56;;;10.66;53.26
28312;BME280;15572;48.810;9.148;2023-03-02T14:41:24;98095.78;;;10.68;53.65
28312;BME280;15572;48.810;9.148;2023-03-02T14:46:20;98094.22;;;10.86;52.79
28312;BME280;15572;48.810;9.148;2023-03-02T14:51:21;98097.28;;;10.77;53.33
28312;BME280;15572;48.810;9.148;2023-03-02T14:56:21;98101.53;;;10.51;53.66
28312;BME280;15572;48.810;9.148;2023-03-02T15:01:18;98093.41;;;10.02;55.45
28312;BME280;15572;48.810;9.148;2023-03-02T15:06:23;98091.09;;;9.99;56.31
28312;BME280;15572;48.810;9.148;2023-03-02T15:11:22;98093.41;;;10.24;55.62
28312;BME280;15572;48.810;9.148;2023-03-02T15:16:18;98096.50;;;10.21;55.45
28312;BME280;15572;48.810;9.148;2023-03-02T15:21:16;98094.69;;;10.06;55.83
28312;BME280;15572;48.810;9.148;2023-03-02T15:26:14;98096.91;;;9.75;56.96
28312;BME280;15572;48.810;9.148;2023-03-02T15:31:13;98093.44;;;9.81;57.67
28312;BME280;15572;48.810;9.148;2023-03-02T15:36:11;98090.72;;;10.02;56.56
28312;BME280;15572;48.810;9.148;2023-03-02T15:41:11;98081.56;;;10.03;57.06
28312;BME280;15572;48.810;9.148;2023-03-02T15:46:07;98085.16;;;10.10;57.37
28312;BME280;15572;48.810;9.148;2023-03-02T15:51:06;98086.91;;;9.97;57.45
28312;BME280;15572;48.810;9.148;2023-03-02T15:56:03;98097.81;;;10.03;57.45
28312;BME280;15572;48.810;9.148;2023-03-02T16:01:05;98090.06;;;10.00;57.41
28312;BME280;15572;48.810;9.148;2023-03-02T16:06:02;98095.16;;;9.89;57.69
28312;BME280;15572;48.810;9.148;2023-03-02T16:11:01;98094.06;;;9.83;57.84
28312;BME280;15572;48.810;9.148;2023-03-02T16:15:59;98088.41;;;9.57;59.12
28312;BME280;15572;48.810;9.148;2023-03-02T16:20:56;98096.13;;;9.39;59.75
28312;BME280;15572;48.810;9.148;2023-03-02T16:25:53;98098.03;;;9.23;60.68
28312;BME280;15572;48.810;9.148;2023-03-02T16:30:50;98097.03;;;9.10;61.32
28312;BME280;15572;48.810;9.148;2023-03-02T16:35:47;98105.53;;;8.92;61.92
28312;BME280;15572;48.810;9.148;2023-03-02T16:40:44;98104.63;;;8.85;62.69
28312;BME280;15572;48.810;9.148;2023-03-02T16:45:41;98115.13;;;8.51;64.10
28312;BME280;15572;48.810;9.148;2023-03-02T16:50:39;98121.38;;;8.51;64.46
28312;BME280;15572;48.810;9.148;2023-03-02T16:55:36;98116.84;;;8.29;65.25
28312;BME280;15572;48.810;9.148;2023-03-02T17:00:32;98109.47;;;8.08;66.11
28312;BME280;15572;48.810;9.148;2023-03-02T17:05:29;98130.53;;;7.90;67.68
28312;BME280;15572;48.810;9.148;2023-03-02T17:10:27;98132.38;;;7.67;69.04
28312;BME280;15572;48.810;9.148;2023-03-02T17:15:24;98143.00;;;7.68;69.11
28312;BME280;15572;48.810;9.148;2023-03-02T17:20:20;98148.28;;;7.53;69.69
28312;BME280;15572;48.810;9.148;2023-03-02T17:25:17;98148.91;;;7.41;70.63
28312;BME280;15572;48.810;9.148;2023-03-02T17:30:15;98157.25;;;7.23;71.82
28312;BME280;15572;48.810;9.148;2023-03-02T17:35:12;98159.59;;;7.26;72.50
28312;BME280;15572;48.810;9.148;2023-03-02T17:40:11;98175.59;;;7.19;72.84
28312;BME280;15572;48.810;9.148;2023-03-02T17:45:16;98174.31;;;7.07;72.95
28312;BME280;15572;48.810;9.148;2023-03-02T17:50:12;98178.53;;;7.10;72.85
28312;BME280;15572;48.810;9.148;2023-03-02T17:55:10;98184.81;;;6.86;74.21
28312;BME280;15572;48.810;9.148;2023-03-02T18:00:10;98193.06;;;6.85;75.05
28312;BME280;15572;48.810;9.148;2023-03-02T18:05:10;98194.78;;;6.78;75.01
28312;BME280;15572;48.810;9.148;2023-03-02T18:10:07;98202.19;;;6.75;75.30
28312;BME280;15572;48.810;9.148;2023-03-02T18:15:05;98199.66;;;6.74;75.58
28312;BME280;15572;48.810;9.148;2023-03-02T18:20:03;98202.34;;;6.82;74.89
28312;BME280;15572;48.810;9.148;2023-03-02T18:25:00;98209.75;;;6.72;75.61
28312;BME280;15572;48.810;9.148;2023-03-02T18:29:57;98216.47;;;6.68;76.68
28312;BME280;15572;48.810;9.148;2023-03-02T18:34:53;98210.78;;;6.71;75.99
28312;BME280;15572;48.810;9.148;2023-03-02T18:39:50;98211.94;;;6.68;76.38
28312;BME280;15572;48.810;9.148;2023-03-02T18:44:48;98215.50;;;6.61;76.28
28312;BME280;15572;48.810;9.148;2023-03-02T18:49:45;98227.78;;;6.55;76.80
28312;BME280;15572;48.810;9.148;2023-03-02T18:54:41;98225.28;;;6.46;77.53
28312;BME280;15572;48.810;9.148;2023-03-02T18:59:38;98232.84;;;6.34;77.70
28312;BME280;15572;48.810;9.148;2023-03-02T19:04:36;98232.69;;;6.19;78.36
28312;BME280;15572;48.810;9.148;2023-03-02T19:09:33;98236.88;;;6.06;79.35
28312;BME280;15572;48.810;9.148;2023-03-02T19:14:30;98241.84;;;5.84;80.93
28312;BME280;15572;48.810;9.148;2023-03-02T19:19:27;98246.34;;;5.68;83.26
28312;BME280;15572;48.810;9.148;2023-03-02T19:24:25;98241.47;;;5.55;84.38
28312;BME280;15572;48.810;9.148;2023-03-02T19:29:22;98249.97;;;5.42;84.62
28312;BME280;15572;48.810;9.148;2023-03-02T19:34:19;98246.09;;;5.29;84.79
28312;BME280;15572;48.810;9.148;2023-03-02T19:39:15;98256.56;;;5.14;85.50
28312;BME280;15572;48.810;9.148;2023-03-02T19:44:13;98248.97;;;5.01;85.60
28312;BME280;15572;48.810;9.148;2023-03-02T19:49:11;98251.41;;;4.87;86.56
28312;BME280;15572;48.810;9.148;2023-03-02T19:54:07;98258.91;;;4.75;86.66
28312;BME280;15572;48.810;9.148;2023-03-02T19:59:04;98264.53;;;4.64;87.67
28312;BME280;15572;48.810;9.148;2023-03-02T20:04:02;98263.38;;;4.49;87.45
28312;BME280;15572;48.810;9.148;2023-03-02T20:09:02;98257.22;;;4.31;88.69
28312;BME280;15572;48.810;9.148;2023-03-02T20:14:00;98267.28;;;4.11;89.54
28312;BME280;15572;48.810;9.148;2023-03-02T20:18:57;98270.97;;;3.92;89.65
28312;BME280;15572;48.810;9.148;2023-03-02T20:23:57;98276.28;;;3.74;90.19
28312;BME280;15572;48.810;9.148;2023-03-02T20:28:54;98275.38;;;3.66;90.63
28312;BME280;15572;48.810;9.148;2023-03-02T20:33:53;98277.97;;;3.58;91.43
28312;BME280;15572;48.810;9.148;2023-03-02T20:38:54;98279.19;;;3.46;92.37
28312;BME280;15572;48.810;9.148;2023-03-02T20:43:52;98295.88;;;3.30;93.11
28312;BME280;15572;48.810;9.148;2023-03-02T20:48:49;98286.22;;;3.19;94.13
28312;BME280;15572;48.810;9.148;2023-03-02T20:53:46;98294.00;;;3.13;94.71
28312;BME280;15572;48.810;9.148;2023-03-02T20:58:43;98293.63;;;2.98;94.90
28312;BME280;15572;48.810;9.148;2023-03-02T21:03:42;98308.47;;;2.83;95.14
28312;BME280;15572;48.810;9.148;2023-03-02T21:08:39;98306.81;;;2.63;96.13
28312;BME280;15572;48.810;9.148;2023-03-02T21:13:36;98315.28;;;2.48;96.41
28312;BME280;15572;48.810;9.148;2023-03-02T21:18:34;98323.44;;;2.37;96.69
28312;BME280;15572;48.810;9.148;2023-03-02T21:23:32;98314.75;;;2.16;97.95
28312;BME280;15572;48.810;9.148;2023-03-02T21:28:29;98323.19;;;2.02;99.31
28312;BME280;15572;48.810;9.148;2023-03-02T21:33:25;98321.50;;;1.91;99.89
28312;BME280;15572;48.810;9.148;2023-03-02T21:38:22;98323.03;;;1.75;99.96
28312;BME280;15572;48.810;9.148;2023-03-02T21:43:20;98319.19;;;1.58;100.00
28312;BME280;15572;48.810;9.148;2023-03-02T21:48:16;98316.63;;;1.47;100.00
28312;BME280;15572;48.810;9.148;2023-03-02T21:53:13;98317.78;;;1.44;100.00
28312;BME280;15572;48.810;9.148;2023-03-02T21:58:10;98309.72;;;1.35;100.00
28312;BME280;15572;48.810;9.148;2023-03-02T22:03:08;98309.44;;;1.28;100.00
28312;BME280;15572;48.810;9.148;2023-03-02T22:08:04;98312.66;;;1.32;100.00
28312;BME280;15572;48.810;9.148;2023-03-02T22:13:21;98306.78;;;1.28;100.00
28312;BME280;15572;48.810;9.148;2023-03-02T22:18:21;98303.59;;;1.13;100.00
28312;BME280;15572;48.810;9.148;2023-03-02T22:23:21;98306.22;;;0.94;100.00
28312;BME280;15572;48.810;9.148;2023-03-02T22:28:22;98302.78;;;0.82;100.00
28312;BME280;15572;48.810;9.148;2023-03-02T22:33:22;98298.91;;;0.66;100.00
28312;BME280;15572;48.810;9.148;2023-03-02T22:38:22;98299.84;;;0.55;100.00
28312;BME280;15572;48.810;9.148;2023-03-02T22:43:25;98310.75;;;0.52;100.00
28312;BME280;15572;48.810;9.148;2023-03-02T22:48:27;98315.94;;;0.54;100.00
28312;BME280;15572;48.810;9.148;2023-03-02T22:53:26;98322.13;;;0.54;100.00
28312;BME280;15572;48.810;9.148;2023-03-02T22:58:35;98333.03;;;0.51;100.00
28312;BME280;15572;48.810;9.148;2023-03-02T23:03:43;98324.84;;;0.43;100.00
28312;BME280;15572;48.810;9.148;2023-03-02T23:08:39;98330.72;;;0.37;100.00
28312;BME280;15572;48.810;9.148;2023-03-02T23:13:37;98323.38;;;0.29;100.00
28312;BME280;15572;48.810;9.148;2023-03-02T23:18:34;98329.78;;;0.27;100.00
28312;BME280;15572;48.810;9.148;2023-03-02T23:23:32;98330.00;;;0.35;100.00
28312;BME280;15572;48.810;9.148;2023-03-02T23:28:29;98328.44;;;0.53;100.00
28312;BME280;15572;48.810;9.148;2023-03-02T23:33:25;98328.56;;;0.52;100.00
28312;BME280;15572;48.810;9.148;2023-03-02T23:38:22;98331.09;;;0.53;100.00
28312;BME280;15572;48.810;9.148;2023-03-02T23:43:20;98335.72;;;0.51;100.00
28312;BME280;15572;48.810;9.148;2023-03-02T23:48:17;98326.81;;;0.41;100.00
28312;BME280;15572;48.810;9.148;2023-03-02T23:53:13;98337.25;;;0.33;100.00
28312;BME280;15572;48.810;9.148;2023-03-02T23:58:10;98341.53;;;0.24;100.00
